Time;durP1;ratioP1;P1;durP2;ratioP2;P2;SDS_P1;SDS_P2;PMS_P1;PMS_P2;Temp;Humidity;BMP_temperature;BMP_pressure;BME280_temperature;BME280_humidity;BME280_pressure;Samples;Min_cycle;Max_cycle;Signal;HPM_P1;HPM_P2
2022/08/04 00:00:06;;;;;;;1.70;1.60;;;;;;;26.16;40.68;96988.09;4923021;28;20279;-76
2022/08/04 00:02:53;;;;;;;2.05;1.80;;;;;;;26.22;40.38;96988.59;4909120;28;20207;-76
2022/08/04 00:05:29;;;;;;;1.92;1.58;;;;;;;26.26;41.20;96980.66;4928251;28;20267;-76
2022/08/04 00:08:06;;;;;;;1.92;1.63;;;;;;;26.11;41.67;96985.72;4924544;28;20267;-77
2022/08/04 00:10:33;;;;;;;2.45;1.70;;;;;;;26.20;41.74;96984.72;4923087;28;20281;-76
2022/08/04 00:13:01;;;;;;;1.50;1.40;;;;;;;26.13;41.85;96980.03;4898869;28;20208;-77
2022/08/04 00:15:28;;;;;;;1.80;1.70;;;;;;;26.10;41.32;96978.84;4926228;28;20275;-76
2022/08/04 00:17:54;;;;;;;2.20;2.00;;;;;;;26.11;41.84;96971.59;4943392;28;20623;-76
2022/08/04 00:20:22;;;;;;;2.47;1.63;;;;;;;26.03;41.90;96967.25;4902167;28;20293;-76
2022/08/04 00:22:48;;;;;;;2.08;1.90;;;;;;;26.06;41.93;96971.88;4943592;28;20200;-76
2022/08/04 00:25:13;;;;;;;3.15;2.03;;;;;;;26.08;41.53;96973.09;4922238;28;20642;-76
2022/08/04 00:27:39;;;;;;;2.40;2.20;;;;;;;26.07;41.80;96968.09;4893365;28;20210;-76
2022/08/04 00:30:06;;;;;;;1.77;1.67;;;;;;;26.08;41.99;96969.63;4927124;28;20702;-76
2022/08/04 00:32:32;;;;;;;2.20;2.00;;;;;;;26.11;41.99;96972.38;4898865;28;20481;-76
2022/08/04 00:34:58;;;;;;;1.92;1.83;;;;;;;26.15;42.08;96977.81;4932226;28;20271;-76
2022/08/04 00:37:27;;;;;;;2.80;2.00;;;;;;;26.14;42.00;96968.25;4928931;28;20185;-76
2022/08/04 00:39:57;;;;;;;2.53;2.05;;;;;;;26.08;41.85;96964.28;4918893;28;20212;-76
2022/08/04 00:42:26;;;;;;;2.25;1.95;;;;;;;26.10;42.31;96964.75;4943752;28;20166;-76
2022/08/04 00:45:28;;;;;;;2.15;1.90;;;;;;;25.90;42.22;96963.91;4926787;28;20640;-76
2022/08/04 00:48:00;;;;;;;1.88;1.73;;;;;;;25.88;42.48;96968.84;4915328;28;20654;-76
2022/08/04 00:50:44;;;;;;;3.15;2.17;;;;;;;25.85;42.67;96964.97;4926827;28;20171;-76
2022/08/04 00:53:21;;;;;;;1.98;1.80;;;;;;;25.64;42.98;96964.53;4927606;28;20346;-76
2022/08/04 00:56:12;;;;;;;2.55;1.85;;;;;;;25.67;42.61;96972.59;4926046;28;20200;-76
2022/08/04 00:58:43;;;;;;;2.20;2.00;;;;;;;25.69;43.00;96966.91;4916259;28;20628;-76
2022/08/04 01:01:27;;;;;;;1.92;1.83;;;;;;;25.66;42.94;96954.28;4918641;28;20181;-76
2022/08/04 01:03:56;;;;;;;1.98;1.88;;;;;;;25.74;42.62;96967.41;4938419;28;21419;-76
2022/08/04 01:06:36;;;;;;;2.25;1.85;;;;;;;25.71;42.81;96964.66;4936081;28;20169;-75
2022/08/04 01:09:24;;;;;;;3.88;2.00;;;;;;;25.82;42.37;96964.88;4908984;28;20214;-75
2022/08/04 01:11:55;;;;;;;1.85;1.75;;;;;;;25.79;42.50;96964.47;4923886;28;20674;-75
2022/08/04 01:14:33;;;;;;;2.25;1.90;;;;;;;25.68;42.63;96968.78;4927580;28;20208;-75
2022/08/04 01:17:06;;;;;;;2.22;2.00;;;;;;;25.66;42.81;96970.28;4925206;28;20188;-75
2022/08/04 01:19:53;;;;;;;2.40;1.65;;;;;;;25.60;42.68;96970.56;4923476;28;20735;-75
2022/08/04 01:22:30;;;;;;;1.88;1.77;;;;;;;25.60;42.94;96967.09;4919838;28;20299;-74
2022/08/04 01:25:23;;;;;;;1.90;1.80;;;;;;;25.47;43.49;96966.44;4941294;28;20275;-75
2022/08/04 01:28:20;;;;;;;7.50;2.25;;;;;;;25.40;43.92;96958.28;4922884;28;20305;-75
2022/08/04 01:30:48;;;;;;;2.13;2.00;;;;;;;25.40;43.47;96951.06;4927141;28;20646;-75
2022/08/04 01:33:16;;;;;;;2.90;1.77;;;;;;;25.24;44.11;96956.38;4928415;28;20628;-75
2022/08/04 01:35:54;;;;;;;2.30;2.10;;;;;;;25.09;44.55;96959.03;4931692;28;20165;-74
2022/08/04 01:38:38;;;;;;;1.90;1.67;;;;;;;25.04;44.64;96960.88;4910943;28;20655;-75
2022/08/04 01:41:06;;;;;;;2.25;2.05;;;;;;;25.15;44.59;96955.00;4911344;28;20355;-75
2022/08/04 01:43:33;;;;;;;2.13;1.95;;;;;;;25.13;44.54;96955.34;4910108;28;20213;-75
2022/08/04 01:46:02;;;;;;;2.40;2.20;;;;;;;25.01;45.07;96963.44;4934557;28;20271;-75
2022/08/04 01:48:28;;;;;;;2.40;2.20;;;;;;;25.03;44.71;96959.31;4927637;28;20197;-75
2022/08/04 01:51:07;;;;;;;2.38;2.10;;;;;;;24.91;44.87;96950.66;4942891;28;20283;-75
2022/08/04 01:53:38;;;;;;;1.80;1.70;;;;;;;24.94;44.56;96953.38;4926211;28;20639;-76
2022/08/04 01:56:05;;;;;;;3.08;1.92;;;;;;;25.00;44.95;96945.91;4925275;28;20193;-75
2022/08/04 01:58:32;;;;;;;2.00;1.80;;;;;;;24.97;44.88;96946.63;4925242;28;20143;-74
2022/08/04 02:01:03;;;;;;;2.33;2.17;;;;;;;24.99;44.82;96947.81;4900252;28;20570;-75
2022/08/04 02:03:29;;;;;;;1.83;1.73;;;;;;;24.98;44.72;96956.13;4923237;28;20678;-75
2022/08/04 02:06:06;;;;;;;3.28;2.00;;;;;;;24.74;45.50;96952.50;4924729;28;20903;-76
2022/08/04 02:08:46;;;;;;;2.85;1.50;;;;;;;24.89;45.19;96950.22;4927845;28;20217;-76
2022/08/04 02:11:19;;;;;;;2.00;1.90;;;;;;;24.75;45.43;96950.66;4927177;28;20242;-76
2022/08/04 02:14:03;;;;;;;2.00;1.90;;;;;;;24.66;45.51;96953.47;4940881;28;20297;-76
2022/08/04 02:16:43;;;;;;;2.50;2.30;;;;;;;24.67;45.59;96952.34;4921065;28;20283;-76
2022/08/04 02:19:16;;;;;;;2.25;2.05;;;;;;;24.69;45.35;96944.78;4912134;28;20265;-77
2022/08/04 02:21:46;;;;;;;2.33;2.13;;;;;;;24.74;45.44;96949.09;4924737;28;20263;-76
2022/08/04 02:24:14;;;;;;;2.03;1.92;;;;;;;24.77;45.00;96948.41;4940916;28;20145;-76
2022/08/04 02:26:41;;;;;;;2.38;2.20;;;;;;;24.79;45.34;96944.28;4922341;28;20726;-76
2022/08/04 02:29:20;;;;;;;2.35;2.20;;;;;;;24.68;45.39;96941.34;4924741;28;20181;-76
2022/08/04 02:31:53;;;;;;;3.35;2.45;;;;;;;24.75;45.43;96948.75;4916291;28;20288;-76
2022/08/04 02:34:42;;;;;;;2.50;2.30;;;;;;;24.66;45.51;96940.16;4922605;28;20169;-76
2022/08/04 02:37:08;;;;;;;2.45;2.17;;;;;;;24.84;45.06;96945.91;4944686;28;20154;-76
2022/08/04 02:39:35;;;;;;;2.38;2.17;;;;;;;24.84;44.91;96937.94;4911540;28;20534;-76
2022/08/04 02:42:03;;;;;;;2.70;2.50;;;;;;;24.90;44.54;96943.75;4933190;28;20177;-76
2022/08/04 02:44:29;;;;;;;2.28;2.00;;;;;;;25.00;44.75;96941.38;4907192;28;20305;-76
2022/08/04 02:46:55;;;;;;;2.20;2.00;;;;;;;24.99;44.58;96939.06;4923877;28;20709;-76
2022/08/04 02:49:22;;;;;;;3.15;2.28;;;;;;;24.92;45.09;96939.66;4924682;28;20186;-76
2022/08/04 02:51:52;;;;;;;2.33;2.13;;;;;;;24.71;45.16;96945.22;4908462;28;20244;-76
2022/08/04 02:54:33;;;;;;;2.50;2.30;;;;;;;24.58;45.39;96949.84;4943080;28;20802;-76
2022/08/04 02:57:00;;;;;;;2.00;1.85;;;;;;;24.58;45.63;96933.09;4909622;28;20647;-76
2022/08/04 02:59:26;;;;;;;2.38;2.17;;;;;;;24.44;45.89;96942.22;4919598;28;20295;-76
2022/08/04 03:01:55;;;;;;;2.20;2.03;;;;;;;24.27;46.36;96937.22;4927407;28;20272;-76
2022/08/04 03:04:32;;;;;;;2.35;2.20;;;;;;;24.26;46.44;96940.97;4924027;28;20211;-76
2022/08/04 03:07:30;;;;;;;2.35;2.10;;;;;;;24.01;46.49;96934.97;4926897;28;20213;-76
2022/08/04 03:10:20;;;;;;;2.40;2.08;;;;;;;23.98;46.90;96941.00;4917652;28;20612;-76
2022/08/04 03:13:10;;;;;;;2.20;2.00;;;;;;;24.04;46.53;96936.97;4921772;28;20319;-76
2022/08/04 03:15:57;;;;;;;2.55;2.17;;;;;;;24.00;47.18;96939.53;4921367;28;20208;-76
2022/08/04 03:18:41;;;;;;;3.15;2.30;;;;;;;23.99;47.01;96938.00;4919872;28;20272;-76
2022/08/04 03:21:06;;;;;;;2.55;2.35;;;;;;;24.07;47.46;96933.63;4926032;28;20189;-76
2022/08/04 03:24:07;;;;;;;2.53;2.33;;;;;;;23.95;46.89;96941.66;4924174;28;20302;-76
2022/08/04 03:26:50;;;;;;;2.03;1.92;;;;;;;24.04;46.92;96932.44;4914590;28;20224;-76
2022/08/04 03:29:47;;;;;;;2.15;2.05;;;;;;;23.83;47.59;96923.84;4921452;28;20222;-76
2022/08/04 03:32:24;;;;;;;3.33;2.50;;;;;;;24.00;47.44;96926.22;4926477;28;20641;-75
2022/08/04 03:35:15;;;;;;;2.13;2.00;;;;;;;23.86;47.52;96939.16;4930058;28;20166;-75
2022/08/04 03:37:58;;;;;;;2.33;2.17;;;;;;;23.96;47.58;96928.03;4927718;28;20173;-75
2022/08/04 03:40:41;;;;;;;1.80;1.67;;;;;;;23.82;47.95;96931.06;4926468;28;20212;-75
2022/08/04 03:43:41;;;;;;;2.40;2.20;;;;;;;23.80;48.12;96930.56;4926229;28;20646;-75
2022/08/04 03:46:18;;;;;;;2.03;1.67;;;;;;;23.94;47.71;96932.91;4922744;28;20272;-75
2022/08/04 03:48:59;;;;;;;2.45;2.28;;;;;;;23.78;47.96;96924.84;4925909;28;20123;-75
2022/08/04 03:54:49;;;;;;;2.08;1.90;;;;;;;23.77;47.45;96931.28;4938687;28;20403;-75
2022/08/04 03:57:46;;;;;;;2.38;2.05;;;;;;;23.74;47.94;96930.03;4923228;28;20367;-75
2022/08/04 04:00:13;;;;;;;2.90;2.20;;;;;;;23.82;48.02;96933.72;4928610;28;20179;-76
2022/08/04 04:03:01;;;;;;;2.30;2.10;;;;;;;23.67;48.07;96932.50;4923483;28;20291;-76
2022/08/04 04:05:38;;;;;;;2.67;2.22;;;;;;;23.60;48.40;96940.28;4914059;28;20173;-76
2022/08/04 04:08:04;;;;;;;2.53;2.00;;;;;;;23.70;48.24;96941.69;4941706;28;20345;-75
2022/08/04 04:11:00;;;;;;;2.53;2.03;;;;;;;23.55;48.11;96935.97;4925376;28;20182;-76
2022/08/04 04:13:38;;;;;;;2.78;2.20;;;;;;;23.54;48.74;96939.75;4926943;28;20635;-76
2022/08/04 04:16:13;;;;;;;2.35;2.00;;;;;;;23.56;48.48;96936.72;4911068;28;20457;-75
2022/08/04 04:18:38;;;;;;;;;;;;;;;23.32;48.82;96943.63;4900788;28;20191;-76
2022/08/04 04:21:12;;;;;;;3.05;2.15;;;;;;;23.55;48.30;96935.19;4924218;28;20610;-76
2022/08/04 04:23:52;;;;;;;3.13;2.60;;;;;;;23.53;48.42;96937.41;4925375;28;20263;-76
2022/08/04 04:26:35;;;;;;;2.55;2.35;;;;;;;23.41;48.82;96940.84;4917282;28;20257;-76
2022/08/04 04:29:16;;;;;;;2.20;1.85;;;;;;;23.36;49.05;96938.44;4926548;28;20243;-75
2022/08/04 04:32:05;;;;;;;2.75;2.55;;;;;;;23.46;49.18;96937.19;4922850;28;20165;-76
2022/08/04 04:35:07;;;;;;;2.15;1.88;;;;;;;23.45;48.78;96935.66;4929680;28;20294;-76
2022/08/04 04:37:33;;;;;;;2.70;2.40;;;;;;;23.60;48.87;96939.50;4927107;28;20212;-76
2022/08/04 04:40:12;;;;;;;3.58;2.30;;;;;;;23.52;48.87;96939.28;4927038;28;20612;-75
2022/08/04 04:43:00;;;;;;;2.42;2.25;;;;;;;23.52;49.16;96936.63;4925013;28;20189;-76
2022/08/04 04:45:57;;;;;;;2.83;2.50;;;;;;;23.44;49.22;96947.38;4918069;28;20203;-76
2022/08/04 04:48:57;;;;;;;2.13;1.92;;;;;;;23.42;49.40;96938.97;4909584;28;20760;-75
2022/08/04 04:51:42;;;;;;;2.53;2.33;;;;;;;23.53;49.55;96940.84;4938873;28;20243;-76
2022/08/04 04:54:16;;;;;;;2.63;2.43;;;;;;;23.51;49.24;96947.59;4937616;28;20204;-75
2022/08/04 04:56:49;;;;;;;2.63;2.42;;;;;;;23.57;49.13;96948.91;4938801;28;20311;-76
2022/08/04 04:59:21;;;;;;;4.80;3.42;;;;;;;23.63;49.46;96952.91;4911062;28;20219;-76
2022/08/04 05:02:17;;;;;;;2.38;2.17;;;;;;;23.64;49.43;96951.78;4926000;28;20235;-75
2022/08/04 05:05:10;;;;;;;2.67;2.47;;;;;;;23.69;49.31;96956.09;4926145;28;20143;-76
2022/08/04 05:08:13;;;;;;;2.50;2.30;;;;;;;23.77;48.59;96963.19;4924750;28;20216;-76
2022/08/04 05:10:45;;;;;;;2.50;2.25;;;;;;;24.00;48.29;96958.16;4932565;28;20271;-76
2022/08/04 05:13:34;;;;;;;2.60;2.40;;;;;;;23.88;48.83;96971.47;4927024;28;20220;-76
2022/08/04 05:16:06;;;;;;;7.13;2.40;;;;;;;23.98;48.72;96967.59;4920812;28;20627;-76
2022/08/04 05:18:35;;;;;;;2.55;2.13;;;;;;;24.09;48.25;96961.47;4908122;28;20414;-76
2022/08/04 05:21:45;;;;;;;2.47;2.28;;;;;;;24.14;48.05;96965.75;4907104;28;20348;-76
2022/08/04 05:24:13;;;;;;;2.80;2.40;;;;;;;24.29;48.15;96967.69;4868262;28;20251;-76
2022/08/04 05:26:43;;;;;;;2.60;2.40;;;;;;;24.31;48.20;96968.13;4852788;28;20342;-76
2022/08/04 05:29:12;;;;;;;2.63;2.42;;;;;;;24.48;47.22;96975.03;4854250;28;20195;-76
2022/08/04 05:31:40;;;;;;;2.60;2.40;;;;;;;24.51;47.36;96978.16;4851399;29;20620;-76
2022/08/04 05:34:28;;;;;;;2.33;2.13;;;;;;;24.45;47.23;96974.94;4885579;28;20583;-76
2022/08/04 05:37:02;;;;;;;2.45;2.25;;;;;;;24.57;47.09;96968.81;4869067;28;20274;-77
2022/08/04 05:39:30;;;;;;;2.55;2.35;;;;;;;24.70;47.02;96972.97;4873136;28;20184;-76
2022/08/04 05:41:56;;;;;;;2.70;2.50;;;;;;;24.84;46.93;96973.31;4870481;28;20646;-76
2022/08/04 05:44:22;;;;;;;3.55;2.53;;;;;;;24.96;46.37;96977.03;4853334;28;20296;-76
2022/08/04 05:46:50;;;;;;;3.10;2.60;;;;;;;25.02;46.33;96975.66;4887564;28;20211;-76
2022/08/04 05:49:15;;;;;;;2.60;2.40;;;;;;;25.14;46.18;96970.25;4869656;28;20888;-76
2022/08/04 05:51:42;;;;;;;2.40;2.20;;;;;;;25.22;45.99;96974.63;4869282;28;20207;-76
2022/08/04 05:54:09;;;;;;;2.38;2.17;;;;;;;25.29;45.99;96973.25;4875912;28;20247;-76
2022/08/04 05:56:35;;;;;;;2.72;2.55;;;;;;;25.37;46.01;96974.97;4869879;28;20343;-76
2022/08/04 05:59:01;;;;;;;2.63;2.40;;;;;;;25.45;46.09;96971.34;4916514;28;20233;-76
2022/08/04 06:01:28;;;;;;;2.47;2.28;;;;;;;25.57;45.72;96975.81;4910494;28;20198;-76
2022/08/04 06:03:54;;;;;;;2.80;2.60;;;;;;;25.67;45.74;96975.25;4927188;28;20214;-76
2022/08/04 06:06:20;;;;;;;2.90;2.70;;;;;;;25.85;45.56;96980.97;4911664;28;20275;-76
2022/08/04 06:08:45;;;;;;;2.42;2.22;;;;;;;26.00;45.15;96979.41;4910290;28;20200;-76
2022/08/04 06:11:12;;;;;;;2.60;2.40;;;;;;;26.11;45.08;96976.94;4927154;28;20292;-76
2022/08/04 06:13:43;;;;;;;2.30;2.20;;;;;;;26.17;44.73;96978.22;4926355;28;20287;-76
2022/08/04 06:16:10;;;;;;;2.40;2.20;;;;;;;26.34;44.22;96975.13;4910176;28;20200;-76
2022/08/04 06:18:36;;;;;;;4.03;2.30;;;;;;;26.44;43.67;96975.66;4891527;28;20281;-76
2022/08/04 06:21:03;;;;;;;2.28;2.17;;;;;;;26.49;43.12;96975.38;4910788;28;20189;-76
2022/08/04 06:23:30;;;;;;;3.22;2.17;;;;;;;26.59;43.16;96982.81;4926678;28;20281;-76
2022/08/04 06:25:59;;;;;;;1.98;1.88;;;;;;;26.63;42.87;96983.69;4909217;28;20301;-76
2022/08/04 06:28:26;;;;;;;2.35;2.25;;;;;;;26.79;42.75;96985.47;4926337;28;20761;-76
2022/08/04 06:30:53;;;;;;;2.85;2.65;;;;;;;26.97;42.80;96983.84;4910308;28;20275;-75
2022/08/04 06:33:26;;;;;;;2.33;2.20;;;;;;;27.15;41.62;96986.06;4894495;28;20237;-75
2022/08/04 06:35:55;;;;;;;3.20;1.95;;;;;;;27.29;41.53;96983.63;4926338;28;20260;-75
2022/08/04 06:38:23;;;;;;;2.13;1.90;;;;;;;27.55;40.73;96984.78;4927457;28;20162;-76
2022/08/04 06:40:48;;;;;;;2.00;1.90;;;;;;;27.83;40.43;96982.50;4926594;28;20251;-74
2022/08/04 06:43:14;;;;;;;2.35;2.10;;;;;;;28.12;39.97;96990.13;4892474;28;20837;-74
2022/08/04 06:45:41;;;;;;;2.70;2.50;;;;;;;28.37;39.21;96985.06;4874799;28;20584;-74
2022/08/04 06:48:07;;;;;;;2.03;1.85;;;;;;;28.71;39.03;96993.09;4906625;28;20654;-74
2022/08/04 06:50:34;;;;;;;3.22;2.20;;;;;;;29.03;37.92;96982.66;4913343;28;20356;-74
2022/08/04 06:52:59;;;;;;;3.33;2.20;;;;;;;29.47;36.75;96989.13;4909939;28;20173;-75
2022/08/04 06:55:25;;;;;;;2.10;2.00;;;;;;;29.83;35.63;96984.00;4926069;28;20663;-74
2022/08/04 06:57:51;;;;;;;2.40;2.20;;;;;;;30.19;34.98;96986.84;4926175;28;20236;-74
2022/08/04 07:00:17;;;;;;;2.35;2.25;;;;;;;30.54;33.77;96980.06;4925313;28;20462;-74
2022/08/04 07:02:52;;;;;;;2.40;2.20;;;;;;;30.88;32.84;96987.78;4909649;28;20201;-74
2022/08/04 07:05:18;;;;;;;2.00;1.90;;;;;;;31.09;32.89;96990.50;4908810;28;20277;-74
2022/08/04 07:07:45;;;;;;;2.25;1.98;;;;;;;31.37;32.71;96991.63;4909562;28;20197;-74
2022/08/04 07:10:11;;;;;;;2.65;2.17;;;;;;;31.66;32.87;96991.63;4909963;28;20162;-74
2022/08/04 07:12:38;;;;;;;4.60;2.45;;;;;;;31.88;32.37;96992.34;4909342;28;20205;-74
2022/08/04 07:15:04;;;;;;;2.78;2.38;;;;;;;32.11;31.94;96991.88;4908795;28;20547;-75
2022/08/04 07:17:30;;;;;;;2.63;2.00;;;;;;;32.12;31.30;96998.81;4908242;28;20281;-74
2022/08/04 07:19:56;;;;;;;2.25;2.15;;;;;;;32.23;31.34;96994.13;4905495;28;20717;-74
2022/08/04 07:22:23;;;;;;;2.30;2.10;;;;;;;32.23;31.42;96991.44;4925808;28;20254;-74
2022/08/04 07:24:53;;;;;;;2.35;2.25;;;;;;;32.42;31.48;96987.50;4925484;28;20220;-75
2022/08/04 07:27:19;;;;;;;2.30;2.13;;;;;;;32.72;31.04;96982.72;4909980;28;20375;-74
2022/08/04 07:29:45;;;;;;;2.28;2.17;;;;;;;32.92;30.72;96996.44;4890206;28;21022;-74
2022/08/04 07:32:12;;;;;;;2.65;2.50;;;;;;;33.06;30.56;96990.94;4890163;28;20613;-75
2022/08/04 07:34:38;;;;;;;2.85;2.67;;;;;;;33.24;30.32;96996.22;4906094;28;20751;-74
2022/08/04 07:37:03;;;;;;;2.47;2.28;;;;;;;33.44;29.48;96990.28;4906148;28;20246;-75
2022/08/04 07:39:35;;;;;;;2.47;2.28;;;;;;;33.55;29.64;96988.22;4906016;28;20191;-75
2022/08/04 07:42:01;;;;;;;2.60;2.40;;;;;;;33.85;29.29;96992.19;4899288;28;20235;-74
2022/08/04 07:44:27;;;;;;;2.80;2.60;;;;;;;34.22;28.95;96990.59;4901333;28;20331;-75
2022/08/04 07:46:53;;;;;;;3.00;2.80;;;;;;;34.46;28.31;96981.41;4913517;28;20363;-75
2022/08/04 07:49:21;;;;;;;2.53;2.35;;;;;;;34.61;28.08;96986.59;4909658;28;20651;-75
2022/08/04 07:51:46;;;;;;;3.03;2.83;;;;;;;34.66;27.60;96986.13;4905463;28;20197;-75
2022/08/04 07:54:13;;;;;;;3.03;2.80;;;;;;;34.94;27.19;96984.19;4905899;28;20218;-74
2022/08/04 07:56:40;;;;;;;2.38;2.28;;;;;;;35.03;27.05;96981.72;4926949;28;20293;-74
2022/08/04 07:59:06;;;;;;;3.03;2.28;;;;;;;34.96;27.18;96988.03;4909197;28;20197;-74
2022/08/04 08:01:33;;;;;;;3.00;2.80;;;;;;;35.00;27.60;96988.72;4924922;28;20673;-75
2022/08/04 08:03:59;;;;;;;2.70;2.50;;;;;;;35.20;27.53;96993.41;4924669;28;20147;-74
2022/08/04 08:06:25;;;;;;;2.85;2.65;;;;;;;35.38;27.12;96985.03;4925473;28;20305;-74
2022/08/04 08:08:52;;;;;;;2.92;2.60;;;;;;;35.67;26.27;96990.69;4925093;28;20231;-74
2022/08/04 08:11:18;;;;;;;2.50;2.30;;;;;;;35.89;26.07;96991.06;4909170;28;20655;-75
2022/08/04 08:13:44;;;;;;;2.55;2.45;;;;;;;36.11;26.11;96985.22;4924656;28;20219;-74
2022/08/04 08:16:10;;;;;;;2.78;2.63;;;;;;;35.87;26.64;96989.94;4924937;28;20646;-74
2022/08/04 08:18:35;;;;;;;2.72;2.53;;;;;;;36.20;25.71;96993.53;4889193;28;20662;-74
2022/08/04 08:21:01;;;;;;;2.45;2.35;;;;;;;36.50;25.51;96989.03;4925177;28;20177;-75
2022/08/04 08:23:29;;;;;;;2.75;2.55;;;;;;;36.47;26.04;96989.91;4924853;28;20641;-75
2022/08/04 08:25:54;;;;;;;2.85;2.70;;;;;;;36.65;25.63;96986.78;4925215;28;20209;-75
2022/08/04 08:28:20;;;;;;;2.63;2.42;;;;;;;36.98;25.46;96984.09;4926658;28;20212;-75
2022/08/04 08:30:45;;;;;;;2.70;2.50;;;;;;;37.24;25.09;96991.22;4923240;28;20215;-74
2022/08/04 08:33:12;;;;;;;2.85;2.75;;;;;;;37.44;25.01;96988.38;4907352;28;20197;-75
2022/08/04 08:35:47;;;;;;;2.88;2.67;;;;;;;37.50;24.55;96980.47;4893283;28;20276;-75
2022/08/04 08:38:14;;;;;;;3.30;2.67;;;;;;;37.54;24.15;96983.84;4909244;28;20300;-75
2022/08/04 08:41:07;;;;;;;2.90;2.70;;;;;;;37.52;24.51;96982.75;4923582;28;20451;-75
2022/08/04 08:43:45;;;;;;;3.03;2.70;;;;;;;37.72;23.99;96986.13;4908696;28;20205;-75
2022/08/04 08:46:30;;;;;;;4.18;3.15;;;;;;;37.91;23.75;96984.44;4925583;28;20171;-75
2022/08/04 08:49:14;;;;;;;3.13;2.67;;;;;;;38.00;23.16;96989.22;4916862;28;20708;-75
2022/08/04 08:51:43;;;;;;;3.28;3.08;;;;;;;37.98;23.32;96986.94;4909050;28;20297;-75
2022/08/04 08:54:45;;;;;;;2.95;2.65;;;;;;;38.07;23.25;96994.47;4910340;28;20253;-75
2022/08/04 08:57:52;;;;;;;2.90;2.78;;;;;;;38.23;22.62;96980.03;4909003;28;20193;-75
2022/08/04 09:00:58;;;;;;;3.80;3.38;;;;;;;38.47;22.96;96983.19;4910325;28;20632;-75
2022/08/04 09:03:27;;;;;;;3.08;2.90;;;;;;;38.64;22.27;96985.84;4892458;28;20705;-75
2022/08/04 09:06:14;;;;;;;3.22;3.03;;;;;;;38.67;21.92;96983.00;4910559;28;20636;-74
2022/08/04 09:09:18;;;;;;;3.17;3.00;;;;;;;38.60;22.60;96985.94;4904262;28;20587;-74
2022/08/04 09:11:55;;;;;;;3.00;2.80;;;;;;;38.71;21.91;96982.88;4929787;28;20717;-74
2022/08/04 09:14:25;;;;;;;2.70;2.50;;;;;;;39.07;21.77;96984.47;4911590;28;20216;-74
2022/08/04 09:16:59;;;;;;;3.15;2.70;;;;;;;39.08;21.79;96983.28;4894735;28;20703;-75
2022/08/04 09:19:33;;;;;;;2.88;2.67;;;;;;;39.11;21.55;96985.91;4901873;28;20191;-75
2022/08/04 09:22:14;;;;;;;3.25;2.95;;;;;;;38.97;21.88;96992.53;4891706;28;20645;-75
2022/08/04 09:24:59;;;;;;;3.25;3.05;;;;;;;39.51;21.78;96987.31;4927703;28;20387;-75
2022/08/04 09:27:36;;;;;;;2.92;2.83;;;;;;;39.75;21.44;96987.63;4911300;28;20303;-75
2022/08/04 09:30:05;;;;;;;3.45;2.95;;;;;;;39.97;21.52;96984.91;4927684;28;20197;-75
2022/08/04 09:32:56;;;;;;;2.67;2.47;;;;;;;40.31;21.02;96988.72;4911263;28;20301;-74
2022/08/04 09:35:32;;;;;;;3.00;2.80;;;;;;;40.14;20.81;96988.19;4927335;28;20189;-74
2022/08/04 09:38:06;;;;;;;2.78;2.67;;;;;;;40.25;20.29;96987.78;4927123;28;20192;-75
2022/08/04 09:40:39;;;;;;;3.20;3.00;;;;;;;40.33;20.14;96989.03;4911372;28;20350;-75
2022/08/04 09:43:39;;;;;;;2.83;2.60;;;;;;;40.30;20.78;96987.19;4927114;28;20243;-75
2022/08/04 09:46:09;;;;;;;2.92;2.70;;;;;;;40.42;20.63;96989.06;4914829;28;20494;-75
2022/08/04 09:48:47;;;;;;;3.60;2.83;;;;;;;40.53;19.97;96987.91;4910776;28;20230;-75
2022/08/04 09:51:41;;;;;;;3.35;3.13;;;;;;;40.35;19.79;96989.31;4929146;28;20210;-75
2022/08/04 09:54:18;;;;;;;;;;;;;;;40.62;19.70;96983.25;4910814;28;20283;-75
2022/08/04 09:56:56;;;;;;;2.88;2.67;;;;;;;40.87;19.48;96983.47;4927086;28;20134;-74
2022/08/04 09:59:34;;;;;;;2.53;2.33;;;;;;;41.15;19.12;96987.00;4926608;28;20257;-74
2022/08/04 10:02:06;;;;;;;2.90;2.80;;;;;;;41.06;19.46;96985.03;4928663;28;20226;-74
2022/08/04 10:04:34;;;;;;;2.78;2.67;;;;;;;41.33;18.01;96984.28;4910775;28;20187;-74
2022/08/04 10:07:07;;;;;;;2.60;2.40;;;;;;;41.43;17.71;96978.84;4926745;28;20278;-74
2022/08/04 10:10:10;;;;;;;2.28;1.85;;;;;;;41.45;17.07;96976.41;4910116;28;20265;-74
2022/08/04 10:13:20;;;;;;;4.25;2.65;;;;;;;41.42;16.86;96978.09;4926784;28;20260;-75
2022/08/04 10:15:58;;;;;;;2.38;2.22;;;;;;;41.07;17.32;96978.34;4906955;28;20379;-75
2022/08/04 10:18:39;;;;;;;2.08;1.98;;;;;;;40.97;17.58;96977.56;4909961;28;20169;-74
2022/08/04 10:21:23;;;;;;;2.40;2.30;;;;;;;41.32;16.87;96985.53;4928125;28;20162;-74
2022/08/04 10:24:06;;;;;;;2.28;2.10;;;;;;;41.22;16.74;96978.50;4925654;28;20204;-75
2022/08/04 10:26:55;;;;;;;2.17;2.07;;;;;;;41.62;17.16;96979.59;4893966;28;20356;-74
2022/08/04 10:29:27;;;;;;;2.67;2.47;;;;;;;41.60;16.98;96974.56;4907114;28;20318;-75
2022/08/04 10:32:16;;;;;;;2.30;2.20;;;;;;;41.66;16.36;96980.16;4907333;28;20167;-74
2022/08/04 10:35:14;;;;;;;2.53;2.33;;;;;;;41.90;16.21;96972.09;4908619;28;20166;-75
2022/08/04 10:37:56;;;;;;;2.08;1.98;;;;;;;40.77;16.51;96969.78;4916767;28;20252;-74
2022/08/04 10:40:44;;;;;;;2.28;2.10;;;;;;;41.06;16.61;96965.91;4910312;28;20188;-75
2022/08/04 10:43:34;;;;;;;2.50;2.33;;;;;;;41.41;16.20;96971.09;4911369;28;20252;-74
2022/08/04 10:46:09;;;;;;;2.38;2.28;;;;;;;41.70;15.71;96967.91;4923146;28;20189;-74
2022/08/04 10:48:50;;;;;;;2.00;1.90;;;;;;;41.52;15.68;96968.66;4890142;28;20687;-74
2022/08/04 10:51:27;;;;;;;3.97;2.33;;;;;;;41.72;15.44;96964.72;4906972;28;20244;-74
2022/08/04 10:54:01;;;;;;;2.53;2.42;;;;;;;41.47;15.95;96966.56;4909179;28;20579;-74
2022/08/04 10:56:37;;;;;;;2.15;1.92;;;;;;;41.44;15.52;96964.72;4925027;28;20209;-74
2022/08/04 10:59:08;;;;;;;2.10;2.00;;;;;;;41.54;15.16;96962.72;4925882;28;20705;-74
2022/08/04 11:01:42;;;;;;;2.55;2.35;;;;;;;41.45;15.53;96958.03;4925654;28;20271;-75
2022/08/04 11:04:09;;;;;;;;;;;;;;;41.26;15.89;96953.78;4893021;28;20406;-74
2022/08/04 11:06:35;;;;;;;2.33;2.22;;;;;;;41.28;15.50;96957.56;4923823;28;20139;-75
2022/08/04 11:09:02;;;;;;;2.70;2.50;;;;;;;40.71;15.98;96952.47;4906594;28;20197;-74
2022/08/04 11:11:43;;;;;;;2.47;2.28;;;;;;;40.84;16.13;96957.06;4908019;28;20606;-75
2022/08/04 11:14:12;;;;;;;3.58;2.03;;;;;;;40.39;16.69;96946.34;4924951;28;20275;-75
2022/08/04 11:17:13;;;;;;;2.35;2.25;;;;;;;40.91;15.66;96951.34;4906717;28;20720;-75
2022/08/04 11:19:59;;;;;;;2.17;1.90;;;;;;;40.94;16.12;96955.88;4890379;28;20322;-74
2022/08/04 11:22:25;;;;;;;2.17;1.98;;;;;;;40.76;15.39;96946.41;4906469;28;20337;-75
2022/08/04 11:25:13;;;;;;;2.63;2.42;;;;;;;40.77;15.80;96942.47;4923495;28;20238;-74
2022/08/04 11:27:50;;;;;;;2.13;2.03;;;;;;;40.71;16.17;96946.25;4926509;28;20624;-74
2022/08/04 11:30:16;;;;;;;2.10;1.90;;;;;;;40.58;16.34;96952.59;4942027;28;20278;-75
2022/08/04 11:33:04;;;;;;;2.60;2.40;;;;;;;40.53;16.27;96944.22;4925474;28;20609;-74
2022/08/04 11:35:34;;;;;;;2.15;2.05;;;;;;;40.27;16.42;96952.63;4925710;28;20193;-74
2022/08/04 11:38:31;;;;;;;2.05;1.95;;;;;;;40.07;16.53;96947.56;4892157;28;20184;-74
2022/08/04 11:41:02;;;;;;;2.08;1.98;;;;;;;39.99;16.85;96940.84;4893506;28;20663;-75
2022/08/04 11:43:36;;;;;;;2.30;2.10;;;;;;;40.28;16.43;96950.66;4909056;28;20300;-75
2022/08/04 11:46:13;;;;;;;1.70;1.60;;;;;;;40.39;15.68;96943.63;4907652;28;20691;-74
2022/08/04 11:48:49;;;;;;;2.15;2.05;;;;;;;40.49;16.24;96941.66;4906289;28;20256;-75
2022/08/04 11:51:16;;;;;;;2.50;1.90;;;;;;;40.71;17.03;96941.56;4908801;28;20662;-74
2022/08/04 11:53:43;;;;;;;2.35;2.17;;;;;;;40.83;15.11;96939.19;4925245;28;20286;-74
2022/08/04 11:56:10;;;;;;;2.33;2.17;;;;;;;41.14;15.27;96937.06;4892488;28;20208;-75
2022/08/04 11:58:36;;;;;;;2.15;1.95;;;;;;;41.50;14.96;96938.28;4924984;28;20261;-74
2022/08/04 12:01:08;;;;;;;2.97;2.63;;;;;;;41.91;14.65;96938.06;4925282;28;20269;-74
2022/08/04 12:03:59;;;;;;;1.77;1.67;;;;;;;41.70;13.42;96939.81;4908859;28;20669;-75
2022/08/04 12:06:51;;;;;;;2.38;2.13;;;;;;;42.15;13.40;96938.16;4925124;28;20371;-75
2022/08/04 12:09:28;;;;;;;2.35;2.22;;;;;;;41.52;13.97;96932.38;4928859;28;20779;-75
2022/08/04 12:12:01;;;;;;;2.50;2.38;;;;;;;41.41;14.53;96932.84;4909839;28;20167;-75
2022/08/04 12:14:38;;;;;;;2.30;2.20;;;;;;;41.68;14.14;96932.06;4916781;28;20259;-75